Time;durP1;ratioP1;P1;durP2;ratioP2;P2;SDS_P1;SDS_P2;PMS_P1;PMS_P2;Temp;Humidity;BMP_temperature;BMP_pressure;BME280_temperature;BME280_humidity;BME280_pressure;Samples;Min_cycle;Max_cycle;Signal;HPM_P1;HPM_P2
2022/06/26 00:01:14;;;;;;;3.90;2.20;;;20.60;99.90;;;;;;4992792;28;20279;-86
2022/06/26 00:03:40;;;;;;;3.15;2.33;;;20.60;99.90;;;;;;4993303;28;20267;-87
2022/06/26 00:06:06;;;;;;;2.90;2.10;;;20.60;99.90;;;;;;4993800;28;20171;-85
2022/06/26 00:08:31;;;;;;;3.10;1.90;;;20.60;99.90;;;;;;4994702;28;20215;-87
2022/06/26 00:10:57;;;;;;;3.85;2.05;;;20.60;99.90;;;;;;4994053;28;20180;-87
2022/06/26 00:13:23;;;;;;;3.33;1.90;;;20.60;99.90;;;;;;4993532;28;20313;-87
2022/06/26 00:15:49;;;;;;;2.20;2.00;;;20.70;99.90;;;;;;4993212;28;20259;-87
2022/06/26 00:18:15;;;;;;;3.22;2.00;;;20.60;99.90;;;;;;4989353;28;20195;-84
2022/06/26 00:20:40;;;;;;;1.90;1.80;;;20.60;99.90;;;;;;4993972;28;20271;-84
2022/06/26 00:23:07;;;;;;;2.83;2.20;;;20.60;99.90;;;;;;4994333;28;20274;-83
2022/06/26 00:25:34;;;;;;;6.15;2.10;;;20.60;99.90;;;;;;4993250;28;20183;-88
2022/06/26 00:28:00;;;;;;;3.60;2.17;;;20.50;99.90;;;;;;4992618;28;20617;-87
2022/06/26 00:30:25;;;;;;;2.72;2.00;;;20.40;99.90;;;;;;4994706;28;20200;-87
2022/06/26 00:32:51;;;;;;;2.08;1.88;;;20.40;99.90;;;;;;4992257;28;20226;-87
2022/06/26 00:35:19;;;;;;;2.40;2.20;;;20.40;99.90;;;;;;4993961;28;20176;-87
2022/06/26 00:37:44;;;;;;;4.05;1.98;;;20.40;99.90;;;;;;4994583;28;20271;-87
2022/06/26 00:40:10;;;;;;;1.70;1.60;;;20.40;99.90;;;;;;4993889;28;20606;-88
2022/06/26 00:42:36;;;;;;;2.33;1.85;;;20.30;99.90;;;;;;4992536;28;20192;-87
2022/06/26 00:45:03;;;;;;;4.68;1.90;;;20.30;99.90;;;;;;4994035;28;20168;-87
2022/06/26 00:47:30;;;;;;;4.30;2.40;;;20.20;99.90;;;;;;4992816;28;20207;-87
2022/06/26 00:49:56;;;;;;;2.35;2.10;;;20.20;99.90;;;;;;4992617;28;20272;-87
2022/06/26 00:52:22;;;;;;;3.35;2.40;;;20.30;99.90;;;;;;4994245;28;20638;-87
2022/06/26 00:54:50;;;;;;;2.13;1.92;;;20.30;99.90;;;;;;4994203;28;20306;-87
2022/06/26 00:57:15;;;;;;;2.05;1.85;;;20.30;99.90;;;;;;4979497;28;20192;-87
2022/06/26 00:59:42;;;;;;;2.42;1.95;;;20.20;99.90;;;;;;4976715;28;20180;-87
2022/06/26 01:02:08;;;;;;;2.03;1.83;;;20.20;99.90;;;;;;4993692;28;20179;-87
2022/06/26 01:04:34;;;;;;;3.15;2.25;;;20.20;99.90;;;;;;4994055;28;20230;-87
2022/06/26 01:07:00;;;;;;;5.30;2.10;;;20.00;99.90;;;;;;4992931;28;20212;-85
2022/06/26 01:09:26;;;;;;;3.58;2.20;;;20.00;99.90;;;;;;4994169;28;20689;-84
2022/06/26 01:11:53;;;;;;;3.55;1.95;;;20.10;99.90;;;;;;4996781;28;20192;-84
2022/06/26 01:14:20;;;;;;;3.03;1.90;;;20.00;99.90;;;;;;4994953;28;20231;-85
2022/06/26 01:16:46;;;;;;;3.63;2.15;;;19.90;99.90;;;;;;4994296;28;20184;-84
2022/06/26 01:19:16;;;;;;;4.88;2.25;;;19.90;99.90;;;;;;4996153;28;20183;-86
2022/06/26 01:21:42;;;;;;;4.70;2.30;;;19.90;99.90;;;;;;4995459;28;20246;-85
2022/06/26 01:24:08;;;;;;;4.00;2.28;;;19.90;99.90;;;;;;4978110;28;20184;-86
2022/06/26 01:26:35;;;;;;;2.35;2.15;;;19.80;99.90;;;;;;4983209;28;20226;-86
2022/06/26 01:29:01;;;;;;;3.25;2.08;;;19.80;99.90;;;;;;4996981;28;20172;-84
2022/06/26 01:31:27;;;;;;;5.15;2.45;;;19.80;99.90;;;;;;4996367;28;20187;-84
2022/06/26 01:33:53;;;;;;;3.22;2.20;;;19.80;99.90;;;;;;4995197;28;20242;-84
2022/06/26 01:36:20;;;;;;;4.70;2.28;;;19.80;99.90;;;;;;4996222;28;20688;-87
2022/06/26 01:38:46;;;;;;;4.95;2.13;;;19.70;99.90;;;;;;4996906;28;20164;-85
2022/06/26 01:41:11;;;;;;;2.17;1.98;;;19.70;99.90;;;;;;4996036;28;20195;-84
2022/06/26 01:43:38;;;;;;;4.35;2.40;;;19.60;99.90;;;;;;4994608;28;20619;-84
2022/06/26 01:46:06;;;;;;;2.97;2.38;;;19.50;99.90;;;;;;4995961;28;20195;-85
2022/06/26 01:48:33;;;;;;;3.97;2.45;;;19.50;99.90;;;;;;4996723;28;20208;-85
2022/06/26 01:51:00;;;;;;;5.18;2.45;;;19.50;99.90;;;;;;4995749;28;20184;-87
2022/06/26 01:53:27;;;;;;;5.32;2.30;;;19.50;99.90;;;;;;4996061;28;20187;-84
2022/06/26 01:55:53;;;;;;;3.72;2.50;;;19.50;99.90;;;;;;4995895;28;20203;-85
2022/06/26 01:58:19;;;;;;;5.57;2.33;;;19.30;99.90;;;;;;4995223;28;20178;-86
2022/06/26 02:00:46;;;;;;;4.57;2.35;;;19.30;99.90;;;;;;4994020;28;20533;-85
2022/06/26 02:03:15;;;;;;;2.78;2.20;;;19.30;99.90;;;;;;4994403;28;20184;-84
2022/06/26 02:05:41;;;;;;;3.45;2.15;;;19.30;99.90;;;;;;4996203;28;20223;-86
2022/06/26 02:08:07;;;;;;;2.78;2.17;;;19.40;99.90;;;;;;4994428;28;20211;-85
2022/06/26 02:13:37;;;;;;;4.68;2.33;;;19.20;99.90;;;;;;4995128;28;20234;-86
2022/06/26 02:16:12;;;;;;;2.67;2.22;;;19.30;99.90;;;;;;4995300;28;20160;-85
2022/06/26 02:18:40;;;;;;;3.90;2.65;;;19.30;99.90;;;;;;4994907;28;20657;-85
2022/06/26 02:21:10;;;;;;;2.92;2.47;;;19.40;99.90;;;;;;4993866;28;20250;-86
2022/06/26 02:23:37;;;;;;;7.05;2.60;;;19.50;99.90;;;;;;4995314;28;20184;-85
2022/06/26 02:26:05;;;;;;;3.75;2.47;;;19.40;99.90;;;;;;4995216;28;20172;-85
2022/06/26 02:28:31;;;;;;;5.50;2.60;;;19.30;99.90;;;;;;4994049;28;20634;-85
2022/06/26 02:30:57;;;;;;;3.58;2.80;;;19.20;99.90;;;;;;4994324;28;20184;-85
2022/06/26 02:33:23;;;;;;;5.05;2.42;;;19.10;99.90;;;;;;4995630;28;20195;-85
2022/06/26 02:35:49;;;;;;;5.57;2.50;;;19.00;99.90;;;;;;4995816;28;20226;-86
2022/06/26 02:38:15;;;;;;;5.57;2.67;;;19.00;99.90;;;;;;4993389;28;20528;-85
2022/06/26 02:40:43;;;;;;;10.25;2.88;;;18.90;99.90;;;;;;4993907;28;20179;-84
2022/06/26 02:43:08;;;;;;;8.88;2.70;;;18.80;99.90;;;;;;4994846;28;20206;-85
2022/06/26 02:45:34;;;;;;;7.43;2.70;;;18.80;99.90;;;;;;4993313;28;20207;-84
2022/06/26 02:47:59;;;;;;;6.80;2.50;;;18.70;99.90;;;;;;5009050;28;20218;-84
2022/06/26 02:50:25;;;;;;;6.95;3.00;;;18.70;99.90;;;;;;4993436;28;20184;-84
2022/06/26 02:52:51;;;;;;;4.10;2.45;;;18.60;99.90;;;;;;4992453;28;20187;-84
2022/06/26 02:55:18;;;;;;;2.50;2.25;;;18.60;99.90;;;;;;5010204;28;20266;-84
2022/06/26 02:57:43;;;;;;;3.25;2.63;;;18.60;99.90;;;;;;4994058;28;20513;-85
2022/06/26 03:00:12;;;;;;;3.58;2.67;;;18.70;99.90;;;;;;4992549;28;20194;-85
2022/06/26 03:02:38;;;;;;;8.45;2.70;;;18.90;99.90;;;;;;4991120;28;20277;-84
2022/06/26 03:05:04;;;;;;;7.80;2.70;;;18.90;99.90;;;;;;4986516;28;20224;-85
2022/06/26 03:07:30;;;;;;;5.82;2.50;;;18.90;99.90;;;;;;4993369;28;20212;-85
2022/06/26 03:09:56;;;;;;;5.80;2.40;;;18.90;99.90;;;;;;4993478;28;20234;-85
2022/06/26 03:12:21;;;;;;;5.10;2.92;;;18.80;99.90;;;;;;4993763;28;20265;-85
2022/06/26 03:14:47;;;;;;;5.38;2.67;;;18.80;99.90;;;;;;4994077;28;20268;-85
2022/06/26 03:17:15;;;;;;;4.75;2.33;;;18.70;99.90;;;;;;4994280;28;20187;-87
2022/06/26 03:19:41;;;;;;;3.90;2.70;;;18.70;99.90;;;;;;4994693;28;20194;-87
2022/06/26 03:22:07;;;;;;;6.38;2.30;;;18.70;99.90;;;;;;4995043;28;20618;-87
2022/06/26 03:24:33;;;;;;;5.88;2.83;;;18.60;99.90;;;;;;4974643;28;20195;-86
2022/06/26 03:26:58;;;;;;;6.35;2.20;;;18.70;99.90;;;;;;4985232;28;20230;-85
2022/06/26 03:29:24;;;;;;;7.93;2.45;;;18.70;99.90;;;;;;4993968;28;20188;-87
2022/06/26 03:31:50;;;;;;;5.13;2.47;;;18.70;99.90;;;;;;4993450;28;20196;-87
2022/06/26 03:34:16;;;;;;;6.72;2.30;;;18.80;99.90;;;;;;4993401;28;20641;-88
2022/06/26 03:36:42;;;;;;;4.80;2.83;;;18.80;99.90;;;;;;4993561;28;20271;-88
2022/06/26 03:39:08;;;;;;;9.32;2.75;;;18.80;99.90;;;;;;4994488;28;20251;-87
2022/06/26 03:41:34;;;;;;;4.35;2.13;;;18.90;99.90;;;;;;4995055;28;20279;-86
2022/06/26 03:44:00;;;;;;;6.35;2.33;;;18.90;99.90;;;;;;4988460;28;20189;-87
2022/06/26 03:46:27;;;;;;;9.15;2.38;;;18.90;99.90;;;;;;4976323;28;20187;-87
2022/06/26 03:48:53;;;;;;;5.13;2.80;;;18.80;99.90;;;;;;4994538;28;20215;-84
2022/06/26 03:51:19;;;;;;;4.28;2.50;;;18.90;99.90;;;;;;4993497;28;20187;-87
2022/06/26 03:53:44;;;;;;;6.15;2.50;;;18.90;99.90;;;;;;4993710;28;20210;-84
2022/06/26 03:56:10;;;;;;;2.30;2.10;;;18.90;99.90;;;;;;4975683;28;20180;-83
2022/06/26 03:58:36;;;;;;;4.78;2.42;;;18.90;99.90;;;;;;4992773;28;20196;-84
2022/06/26 04:01:02;;;;;;;3.65;2.42;;;19.00;99.90;;;;;;4992271;28;20187;-84
2022/06/26 04:03:27;;;;;;;2.75;2.40;;;18.90;99.90;;;;;;4992567;28;20619;-87
2022/06/26 04:05:53;;;;;;;4.53;2.40;;;18.90;99.90;;;;;;4991246;28;20693;-85
2022/06/26 04:08:19;;;;;;;5.72;2.60;;;19.00;99.90;;;;;;4991279;28;20500;-88
2022/06/26 04:10:45;;;;;;;9.18;2.72;;;19.10;99.90;;;;;;4992775;28;20192;-85
2022/06/26 04:13:12;;;;;;;5.40;2.70;;;19.20;99.90;;;;;;4994448;28;20321;-88
2022/06/26 04:15:40;;;;;;;3.65;2.47;;;19.20;99.90;;;;;;4993431;28;20183;-88
2022/06/26 04:18:08;;;;;;;2.25;2.05;;;19.30;99.90;;;;;;4992169;28;20198;-88
2022/06/26 04:20:34;;;;;;;6.35;2.95;;;19.20;99.90;;;;;;4994996;28;20218;-88
2022/06/26 04:23:06;;;;;;;5.43;2.72;;;19.20;99.90;;;;;;4993495;28;20196;-87
2022/06/26 04:25:34;;;;;;;3.53;2.50;;;19.20;99.90;;;;;;4980679;28;20188;-88
2022/06/26 04:28:03;;;;;;;5.90;2.20;;;19.20;99.90;;;;;;4992714;28;20689;-87
2022/06/26 04:30:28;;;;;;;2.83;2.30;;;19.20;99.90;;;;;;4994122;28;20270;-88
2022/06/26 04:32:54;;;;;;;8.75;2.55;;;19.10;99.90;;;;;;4992455;28;20348;-88
2022/06/26 04:35:20;;;;;;;3.45;2.38;;;19.20;99.90;;;;;;4994369;28;20211;-87
2022/06/26 04:37:48;;;;;;;7.35;2.60;;;19.20;99.90;;;;;;4994074;28;20534;-88
2022/06/26 04:40:15;;;;;;;5.72;2.35;;;19.20;99.90;;;;;;4993262;28;20184;-87
2022/06/26 04:42:41;;;;;;;5.00;2.55;;;19.20;99.90;;;;;;4993010;28;20191;-87
2022/06/26 04:45:08;;;;;;;5.05;2.50;;;19.30;99.90;;;;;;4982567;28;20191;-88
2022/06/26 04:47:35;;;;;;;6.32;2.55;;;19.30;99.90;;;;;;4996501;28;20211;-87
2022/06/26 04:50:01;;;;;;;7.28;2.47;;;19.30;99.90;;;;;;4997729;28;20250;-85
2022/06/26 04:52:26;;;;;;;9.07;2.80;;;19.20;99.90;;;;;;4997624;28;20180;-87
2022/06/26 04:54:52;;;;;;;6.78;2.63;;;19.30;99.90;;;;;;4995612;28;20197;-87
2022/06/26 04:57:20;;;;;;;3.25;2.15;;;19.40;99.90;;;;;;4997717;28;20573;-88
2022/06/26 04:59:46;;;;;;;8.02;2.63;;;19.40;99.90;;;;;;4996303;28;20200;-87
2022/06/26 05:02:12;;;;;;;11.38;2.05;;;19.50;99.90;;;;;;4996510;28;20179;-88
2022/06/26 05:04:37;;;;;;;2.63;1.70;;;19.60;99.90;;;;;;4995460;28;20251;-88
2022/06/26 05:07:05;;;;;;;2.45;1.90;;;19.70;99.90;;;;;;4995313;28;20216;-88
2022/06/26 05:09:31;;;;;;;2.58;1.73;;;19.80;99.90;;;;;;4986557;28;20522;-88
2022/06/26 05:11:57;;;;;;;5.03;2.00;;;19.90;99.90;;;;;;4995543;28;20561;-88
2022/06/26 05:14:23;;;;;;;3.92;2.00;;;20.00;99.90;;;;;;4995879;28;20242;-88
2022/06/26 05:16:49;;;;;;;2.70;1.80;;;20.00;99.90;;;;;;4997029;28;20258;-87
2022/06/26 05:19:15;;;;;;;7.55;1.98;;;20.00;99.90;;;;;;4997174;28;20218;-86
2022/06/26 05:21:41;;;;;;;2.08;1.85;;;20.00;99.90;;;;;;4997574;28;20174;-87
2022/06/26 05:24:07;;;;;;;2.75;1.85;;;20.20;99.90;;;;;;4995428;28;20188;-89
2022/06/26 05:26:35;;;;;;;2.50;1.58;;;20.30;99.90;;;;;;4996435;28;20184;-87
2022/06/26 05:29:01;;;;;;;3.80;2.13;;;20.50;99.90;;;;;;4996200;28;20182;-87
2022/06/26 05:31:27;;;;;;;1.92;1.60;;;20.60;99.90;;;;;;4985947;28;20191;-86
2022/06/26 05:33:53;;;;;;;1.75;1.65;;;20.70;99.90;;;;;;4994808;28;20188;-88
2022/06/26 05:36:19;;;;;;;3.17;1.85;;;20.80;99.90;;;;;;4996284;28;20515;-87
2022/06/26 05:38:45;;;;;;;3.72;1.73;;;20.90;99.90;;;;;;4996232;28;20215;-87
2022/06/26 05:41:10;;;;;;;2.17;1.70;;;20.90;99.90;;;;;;4994725;28;20211;-87
2022/06/26 05:43:36;;;;;;;2.83;1.70;;;20.90;99.90;;;;;;4994997;28;20188;-88
2022/06/26 05:46:02;;;;;;;2.78;1.90;;;21.00;99.90;;;;;;4995730;28;20184;-87
2022/06/26 05:48:29;;;;;;;2.63;1.73;;;20.90;99.90;;;;;;4996603;28;20226;-88
2022/06/26 05:50:55;;;;;;;2.88;1.75;;;21.00;99.90;;;;;;4987862;28;20188;-87
2022/06/26 05:53:22;;;;;;;2.85;1.67;;;21.00;99.90;;;;;;4994479;28;20630;-88
2022/06/26 05:55:48;;;;;;;3.03;1.80;;;21.10;99.90;;;;;;4990896;28;20177;-89
2022/06/26 05:58:20;;;;;;;1.75;1.65;;;21.10;99.90;;;;;;4995934;28;20194;-89
2022/06/26 06:00:46;;;;;;;1.65;1.55;;;21.10;99.90;;;;;;4995709;28;20238;-89
2022/06/26 06:03:12;;;;;;;1.70;1.40;;;21.20;99.90;;;;;;4996618;28;20195;-89
2022/06/26 06:05:37;;;;;;;3.45;1.83;;;21.20;99.90;;;;;;4995062;28;20180;-90
2022/06/26 06:08:04;;;;;;;3.03;1.50;;;21.30;99.90;;;;;;4993021;28;20223;-88
2022/06/26 06:10:32;;;;;;;2.45;1.50;;;21.40;99.90;;;;;;4993176;28;20195;-89
2022/06/26 06:12:58;;;;;;;2.70;1.65;;;21.50;99.90;;;;;;4980481;28;20283;-87
2022/06/26 06:15:24;;;;;;;5.78;1.80;;;21.50;99.90;;;;;;4994359;28;20566;-85
2022/06/26 06:17:52;;;;;;;2.65;1.50;;;21.70;99.90;;;;;;4994547;28;20184;-87
2022/06/26 06:20:19;;;;;;;2.42;1.60;;;21.80;99.90;;;;;;4994852;28;20191;-88
2022/06/26 06:22:49;;;;;;;2.47;1.50;;;21.90;99.90;;;;;;4995170;28;20179;-89
2022/06/26 06:25:15;;;;;;;3.83;1.50;;;22.00;99.90;;;;;;4995566;28;20196;-88
2022/06/26 06:27:42;;;;;;;3.08;2.00;;;22.10;99.90;;;;;;4988440;28;20295;-90
2022/06/26 06:30:10;;;;;;;1.60;1.50;;;22.10;99.90;;;;;;4977358;28;20615;-90
2022/06/26 06:32:36;;;;;;;3.97;1.65;;;22.20;99.90;;;;;;4978091;28;20231;-89
2022/06/26 06:35:02;;;;;;;4.72;1.70;;;22.30;99.90;;;;;;4995692;28;20180;-89
2022/06/26 06:37:31;;;;;;;2.00;1.60;;;22.40;99.90;;;;;;4994738;28;20623;-90
2022/06/26 06:39:57;;;;;;;3.88;1.40;;;22.50;99.90;;;;;;4996062;28;20192;-89
2022/06/26 06:42:22;;;;;;;1.75;1.60;;;22.50;99.90;;;;;;4995414;28;20527;-89
2022/06/26 06:44:48;;;;;;;2.20;1.40;;;22.50;99.90;;;;;;4994488;28;20198;-89
2022/06/26 06:47:14;;;;;;;1.75;1.45;;;22.60;99.90;;;;;;4992956;28;20238;-86
2022/06/26 06:49:39;;;;;;;2.78;1.30;;;22.60;99.90;;;;;;4994602;28;20191;-88
2022/06/26 06:52:06;;;;;;;2.75;1.40;;;22.70;99.90;;;;;;4995948;28;20230;-85
2022/06/26 06:54:32;;;;;;;2.15;1.38;;;22.80;99.90;;;;;;4993840;28;20552;-85
2022/06/26 06:56:58;;;;;;;1.48;1.30;;;23.00;99.90;;;;;;4996077;28;20230;-86
2022/06/26 06:59:24;;;;;;;1.55;1.33;;;23.10;99.90;;;;;;4990505;28;20185;-89
2022/06/26 07:01:50;;;;;;;2.17;1.33;;;23.40;99.90;;;;;;4975230;28;20184;-86
2022/06/26 07:04:16;;;;;;;3.22;1.40;;;23.70;99.90;;;;;;4993643;28;20627;-88
2022/06/26 07:06:42;;;;;;;1.40;1.23;;;23.90;99.90;;;;;;4993612;28;20188;-86
2022/06/26 07:09:08;;;;;;;1.90;1.25;;;24.10;99.90;;;;;;4993224;28;20230;-89
2022/06/26 07:11:34;;;;;;;1.98;1.33;;;24.30;99.90;;;;;;4994292;28;20172;-88
2022/06/26 07:13:59;;;;;;;1.75;1.30;;;24.50;99.90;;;;;;4995268;28;20327;-86
2022/06/26 07:16:25;;;;;;;1.20;1.10;;;24.70;99.90;;;;;;4990283;28;20212;-89
2022/06/26 07:18:53;;;;;;;2.10;1.20;;;25.00;99.90;;;;;;4989523;28;20191;-87
2022/06/26 07:21:19;;;;;;;3.10;1.75;;;25.20;99.90;;;;;;4994146;28;20226;-86
2022/06/26 07:23:44;;;;;;;2.88;1.17;;;25.40;99.90;;;;;;4991347;28;20215;-85
2022/06/26 07:26:10;;;;;;;1.45;1.23;;;25.60;99.90;;;;;;4993115;28;20195;-88
2022/06/26 07:28:36;;;;;;;1.30;1.20;;;25.70;99.90;;;;;;4992801;28;20250;-85
2022/06/26 07:31:01;;;;;;;1.50;1.20;;;25.70;99.80;;;;;;4993057;28;20187;-85
2022/06/26 07:36:12;;;;;;;1.35;1.13;;;25.70;99.70;;;;;;4995107;28;20179;-85
2022/06/26 07:38:38;;;;;;;7.90;1.10;;;25.70;99.70;;;;;;4995016;28;20183;-86
2022/06/26 07:41:03;;;;;;;1.63;1.15;;;25.80;99.90;;;;;;4994970;28;20168;-85
2022/06/26 07:43:29;;;;;;;2.00;1.20;;;26.00;98.70;;;;;;4994921;28;20192;-85
2022/06/26 07:45:56;;;;;;;3.08;1.25;;;26.30;98.50;;;;;;4994739;28;20254;-89
2022/06/26 07:48:22;;;;;;;0.98;0.90;;;26.50;98.00;;;;;;4994348;28;20208;-87
2022/06/26 07:50:48;;;;;;;3.65;1.13;;;26.70;97.60;;;;;;4993547;28;20182;-84
2022/06/26 07:53:14;;;;;;;1.17;1.02;;;26.70;97.50;;;;;;4994620;28;20267;-84
2022/06/26 07:55:40;;;;;;;2.95;1.30;;;26.70;97.70;;;;;;4993367;28;20587;-84
2022/06/26 07:58:06;;;;;;;2.08;1.00;;;26.60;97.00;;;;;;4993203;28;20215;-84
2022/06/26 08:00:32;;;;;;;1.42;1.10;;;26.40;97.30;;;;;;4992668;28;20202;-82
2022/06/26 08:03:10;;;;;;;2.67;1.17;;;26.20;97.70;;;;;;4994254;28;20180;-85
2022/06/26 08:05:37;;;;;;;4.97;1.10;;;26.00;98.20;;;;;;4993005;28;20176;-85
2022/06/26 08:08:04;;;;;;;1.08;1.00;;;26.10;98.00;;;;;;4994267;28;20269;-88
2022/06/26 08:10:30;;;;;;;1.33;1.00;;;26.20;97.80;;;;;;4993817;28;20231;-84
2022/06/26 08:12:56;;;;;;;1.08;0.95;;;26.30;98.10;;;;;;4992712;28;20227;-85
2022/06/26 08:15:23;;;;;;;1.95;1.25;;;26.30;97.70;;;;;;4994018;28;20182;-85
2022/06/26 08:17:48;;;;;;;1.55;1.10;;;26.40;98.40;;;;;;4995484;28;20175;-85
2022/06/26 08:20:14;;;;;;;1.15;0.98;;;26.30;97.60;;;;;;4998241;28;20191;-84
2022/06/26 08:22:40;;;;;;;2.63;1.20;;;26.20;97.00;;;;;;4997009;28;20649;-84
2022/06/26 08:25:06;;;;;;;1.20;0.90;;;26.30;97.30;;;;;;4998070;28;20172;-85
2022/06/26 08:27:32;;;;;;;1.98;1.10;;;26.50;97.80;;;;;;4998231;28;20243;-85
2022/06/26 08:29:58;;;;;;;1.75;1.15;;;26.70;99.00;;;;;;4997256;28;20222;-86
2022/06/26 08:32:24;;;;;;;1.65;1.35;;;26.80;97.60;;;;;;4997901;28;20182;-85
2022/06/26 08:34:49;;;;;;;2.92;1.40;;;26.90;97.20;;;;;;4996646;28;20187;-84
2022/06/26 08:37:16;;;;;;;2.38;1.25;;;26.90;96.50;;;;;;4996744;28;20327;-84
2022/06/26 08:39:43;;;;;;;3.38;1.30;;;27.10;96.70;;;;;;4997794;28;20258;-85
2022/06/26 08:42:10;;;;;;;2.08;1.83;;;27.30;97.20;;;;;;4996637;28;20510;-85
2022/06/26 08:44:41;;;;;;;1.77;1.55;;;27.50;96.20;;;;;;4997464;28;20183;-84
2022/06/26 08:47:08;;;;;;;2.50;1.60;;;27.70;96.00;;;;;;4997523;28;20192;-85
2022/06/26 08:49:34;;;;;;;2.58;1.55;;;27.80;96.50;;;;;;4996097;28;20176;-83
2022/06/26 08:52:00;;;;;;;2.40;1.52;;;27.80;96.00;;;;;;4996473;28;20678;-85
2022/06/26 08:54:29;;;;;;;3.33;1.50;;;27.90;95.10;;;;;;4996477;28;20495;-85
2022/06/26 08:56:55;;;;;;;1.80;1.40;;;28.10;94.90;;;;;;4995997;28;20179;-85
2022/06/26 08:59:21;;;;;;;2.00;1.38;;;28.10;95.30;;;;;;4996437;28;20279;-85
2022/06/26 09:01:47;;;;;;;4.60;1.92;;;28.10;94.20;;;;;;4997281;28;20252;-84
2022/06/26 09:04:13;;;;;;;3.25;1.25;;;28.20;94.30;;;;;;4996192;28;20203;-86
2022/06/26 09:06:41;;;;;;;2.42;1.42;;;28.30;94.80;;;;;;4996880;28;20187;-85
2022/06/26 09:09:17;;;;;;;3.60;1.50;;;28.50;93.80;;;;;;4997591;28;20212;-85
2022/06/26 09:11:43;;;;;;;1.50;1.40;;;28.50;94.00;;;;;;4996253;28;20172;-85
2022/06/26 09:14:13;;;;;;;4.53;1.50;;;28.60;94.80;;;;;;4995766;28;20678;-87
2022/06/26 09:16:42;;;;;;;3.15;1.80;;;28.80;93.70;;;;;;4995671;28;20183;-86
2022/06/26 09:19:14;;;;;;;3.63;1.50;;;28.70;93.90;;;;;;4995839;28;20214;-87
2022/06/26 09:21:41;;;;;;;1.98;1.38;;;28.80;93.60;;;;;;4996341;28;20188;-85
2022/06/26 09:24:10;;;;;;;3.58;1.30;;;28.80;93.60;;;;;;4995864;28;20579;-86
2022/06/26 09:26:36;;;;;;;2.22;1.50;;;28.80;93.40;;;;;;4996889;28;20603;-86
2022/06/26 09:29:13;;;;;;;3.35;1.45;;;28.80;93.10;;;;;;4994775;28;20238;-85
2022/06/26 09:31:39;;;;;;;1.70;1.30;;;28.90;94.00;;;;;;4996983;28;20171;-86
2022/06/26 09:34:06;;;;;;;1.75;1.30;;;29.00;93.80;;;;;;4996935;28;20191;-86
2022/06/26 09:36:33;;;;;;;2.85;1.40;;;29.00;93.20;;;;;;4996677;28;20179;-86
2022/06/26 09:38:59;;;;;;;3.05;1.30;;;29.10;93.70;;;;;;4997065;28;20172;-87
2022/06/26 09:41:34;;;;;;;2.13;1.40;;;29.00;92.30;;;;;;4995822;28;20279;-88
2022/06/26 09:44:01;;;;;;;1.35;1.20;;;29.20;93.30;;;;;;4996697;28;20188;-87
2022/06/26 09:46:35;;;;;;;1.50;1.13;;;29.20;93.50;;;;;;4995077;28;20222;-86
2022/06/26 09:49:01;;;;;;;2.42;1.10;;;29.20;92.90;;;;;;4995491;28;20226;-87
2022/06/26 09:51:27;;;;;;;2.67;1.10;;;29.40;92.00;;;;;;4995721;28;20172;-86
2022/06/26 09:53:53;;;;;;;1.15;1.05;;;29.30;90.60;;;;;;4994091;28;20180;-87
2022/06/26 09:56:19;;;;;;;1.30;1.20;;;29.30;91.10;;;;;;4995108;28;20200;-87
2022/06/26 09:58:45;;;;;;;4.68;1.20;;;29.40;91.30;;;;;;4993826;28;20660;-87
2022/06/26 10:06:43;;;;;;;1.95;1.05;;;29.70;91.60;;;;;;4991062;28;20246;-88
2022/06/26 10:09:10;;;;;;;1.48;1.20;;;29.60;90.20;;;;;;4996037;28;20250;-88
2022/06/26 10:11:40;;;;;;;1.60;1.20;;;29.50;88.40;;;;;;4994862;28;20192;-87
2022/06/26 10:14:34;;;;;;;1.25;1.00;;;29.60;90.40;;;;;;4993523;28;20227;-86
2022/06/26 10:17:16;;;;;;;1.23;1.13;;;29.70;88.50;;;;;;4985063;28;20870;-89
2022/06/26 10:19:51;;;;;;;1.13;0.88;;;29.80;89.70;;;;;;4994269;28;20160;-88
2022/06/26 10:22:17;;;;;;;2.80;1.20;;;29.90;89.40;;;;;;4993779;28;20204;-87
2022/06/26 10:24:50;;;;;;;1.33;1.00;;;30.00;85.20;;;;;;4996151;28;20183;-88
2022/06/26 10:27:16;;;;;;;1.85;0.90;;;30.00;86.60;;;;;;4995015;28;20229;-88
2022/06/26 10:29:42;;;;;;;1.48;1.02;;;30.00;84.80;;;;;;4996072;28;20179;-88
2022/06/26 10:32:09;;;;;;;3.83;1.10;;;30.10;87.00;;;;;;4995995;28;20179;-88
2022/06/26 10:34:36;;;;;;;1.52;0.90;;;30.20;87.10;;;;;;4994403;28;20601;-86
2022/06/26 10:37:10;;;;;;;1.38;1.08;;;30.40;86.50;;;;;;4995696;28;20183;-86
2022/06/26 10:39:42;;;;;;;1.67;0.98;;;30.60;84.00;;;;;;4985377;28;20184;-89
2022/06/26 10:45:11;;;;;;;1.05;0.90;;;30.30;83.90;;;;;;4994377;28;20222;-91
2022/06/26 10:47:48;;;;;;;1.10;0.90;;;30.20;87.20;;;;;;4989440;28;20593;-89
2022/06/26 10:50:27;;;;;;;2.85;0.90;;;30.30;88.00;;;;;;4992594;28;20532;-82
2022/06/26 10:53:14;;;;;;;0.95;0.68;;;30.50;86.90;;;;;;4993609;28;20186;-86
2022/06/26 10:55:42;;;;;;;1.00;0.80;;;30.80;85.30;;;;;;4977515;28;20195;-86
2022/06/26 10:58:08;;;;;;;3.13;1.00;;;30.80;80.70;;;;;;4992997;28;20172;-87
2022/06/26 11:00:35;;;;;;;1.40;0.70;;;30.90;85.20;;;;;;4991459;28;20199;-91
2022/06/26 11:03:15;;;;;;;1.13;1.02;;;31.00;83.90;;;;;;4994678;28;20270;-86
2022/06/26 11:06:01;;;;;;;1.88;1.23;;;31.00;82.20;;;;;;4988096;28;20210;-85
2022/06/26 11:08:30;;;;;;;3.03;1.00;;;30.90;82.90;;;;;;4994297;28;20302;-86
2022/06/26 11:11:14;;;;;;;1.40;0.88;;;30.40;82.10;;;;;;4993794;28;20274;-85
2022/06/26 11:14:00;;;;;;;2.47;1.00;;;30.20;81.60;;;;;;4994098;28;20270;-85
2022/06/26 11:16:35;;;;;;;1.08;1.00;;;30.00;83.90;;;;;;4995122;28;20171;-86
2022/06/26 11:19:04;;;;;;;1.30;0.90;;;29.90;85.40;;;;;;4993729;28;20644;-87
2022/06/26 11:21:30;;;;;;;2.88;1.00;;;30.20;86.50;;;;;;4994405;28;20179;-86
2022/06/26 11:23:56;;;;;;;2.03;0.98;;;30.40;86.10;;;;;;4993920;28;20183;-83
2022/06/26 11:26:23;;;;;;;3.97;0.93;;;30.30;85.50;;;;;;4994865;28;20219;-84
2022/06/26 11:28:57;;;;;;;2.45;0.98;;;30.20;85.70;;;;;;4988127;28;20223;-86
2022/06/26 11:31:30;;;;;;;0.70;0.70;;;30.00;86.30;;;;;;4975865;28;20202;-87
2022/06/26 11:34:11;;;;;;;4.45;1.02;;;29.80;85.30;;;;;;4994017;28;20190;-86
2022/06/26 11:36:47;;;;;;;2.38;1.00;;;29.50;84.70;;;;;;4993230;28;20183;-86
2022/06/26 11:39:12;;;;;;;1.65;1.13;;;29.20;84.80;;;;;;4985234;28;20619;-85
2022/06/26 11:41:39;;;;;;;1.20;1.00;;;29.20;86.70;;;;;;4976073;28;20184;-87
2022/06/26 11:44:05;;;;;;;2.42;0.95;;;29.40;88.40;;;;;;4988170;28;20190;-86
2022/06/26 11:46:31;;;;;;;1.02;0.70;;;29.80;89.30;;;;;;4992261;28;20183;-86
2022/06/26 11:48:57;;;;;;;1.60;1.00;;;30.10;83.70;;;;;;4993068;28;20219;-84
2022/06/26 11:51:23;;;;;;;1.67;0.90;;;30.60;87.20;;;;;;4981905;28;20237;-87
2022/06/26 11:53:51;;;;;;;1.63;1.08;;;30.80;85.20;;;;;;4990653;28;20278;-86
2022/06/26 11:56:21;;;;;;;3.20;1.10;;;30.70;84.60;;;;;;4989936;28;20201;-85
2022/06/26 11:58:49;;;;;;;1.10;0.80;;;30.50;84.60;;;;;;4995216;28;20175;-87
2022/06/26 12:01:16;;;;;;;1.35;0.95;;;30.30;83.60;;;;;;4990802;28;20240;-87
2022/06/26 12:03:47;;;;;;;1.00;0.90;;;30.10;84.40;;;;;;4987684;28;20312;-88
2022/06/26 12:06:40;;;;;;;2.80;0.80;;;30.10;83.80;;;;;;4994247;28;20179;-86
2022/06/26 12:09:17;;;;;;;1.25;0.80;;;30.00;83.60;;;;;;4987864;28;20230;-87
2022/06/26 12:11:44;;;;;;;1.48;1.05;;;29.90;84.90;;;;;;4995434;28;20481;-87
2022/06/26 12:14:17;;;;;;;1.58;1.00;;;29.70;87.10;;;;;;4982987;28;21110;-84
2022/06/26 12:16:57;;;;;;;1.95;1.10;;;29.60;88.50;;;;;;4994926;28;20175;-85
2022/06/26 12:19:24;;;;;;;1.23;0.90;;;29.60;87.50;;;;;;4993983;28;20186;-87
2022/06/26 12:21:52;;;;;;;1.13;1.00;;;29.40;88.70;;;;;;4994169;28;20186;-87
2022/06/26 12:24:19;;;;;;;1.27;1.00;;;29.30;88.30;;;;;;4994469;28;20177;-87
2022/06/26 12:26:45;;;;;;;2.80;1.27;;;29.20;87.70;;;;;;4994585;28;20266;-86
2022/06/26 12:29:13;;;;;;;1.63;1.08;;;29.10;88.10;;;;;;4992751;28;20218;-86
2022/06/26 12:31:41;;;;;;;1.55;1.20;;;29.00;88.90;;;;;;4994727;28;20171;-86
2022/06/26 12:34:08;;;;;;;1.25;1.10;;;29.00;87.80;;;;;;4994837;28;20602;-87
2022/06/26 12:36:34;;;;;;;1.27;1.17;;;29.00;89.60;;;;;;4994066;28;20179;-86
2022/06/26 12:39:01;;;;;;;2.30;1.23;;;29.00;89.80;;;;;;4992980;28;20183;-86
2022/06/26 12:41:27;;;;;;;0.85;0.80;;;29.10;88.20;;;;;;4994588;28;20197;-84
2022/06/26 12:43:57;;;;;;;1.23;1.00;;;29.10;90.00;;;;;;4993683;28;20187;-88
2022/06/26 12:46:24;;;;;;;1.45;1.10;;;29.10;86.80;;;;;;4992889;28;20187;-86
2022/06/26 12:48:50;;;;;;;1.27;1.10;;;29.20;85.00;;;;;;4994922;28;20234;-85
2022/06/26 12:51:16;;;;;;;1.55;1.10;;;29.20;84.50;;;;;;4992261;28;20611;-87
2022/06/26 12:53:43;;;;;;;1.65;1.10;;;29.20;87.60;;;;;;4993224;28;20185;-86
2022/06/26 12:56:10;;;;;;;2.25;1.35;;;29.10;88.50;;;;;;4987709;28;20198;-85
2022/06/26 12:58:37;;;;;;;1.33;1.05;;;29.00;88.50;;;;;;4978580;28;20183;-87
2022/06/26 13:01:05;;;;;;;1.10;1.00;;;28.90;89.20;;;;;;4983041;28;20186;-88
2022/06/26 13:03:30;;;;;;;1.73;1.20;;;28.90;89.90;;;;;;4986974;28;20226;-87